Latest Weather Observations for Mount Isa

IDQ60801

Issued at 10:32 am EST Monday 20 April 2015 (issued every 30 minutes, with the page automatically refreshed every 10 minutes)

About weather observations | Map of weather stations | Latest weather observations for QLD | Other Formats
Station Details ID: 029127 Name: MOUNT ISA AERO Lat: -20.68 Lon: 139.49 Height: 340.3 m
Data from the previous 72 hours. | See also: Recent months at Mount Isa
Date/Time
EST
Temp
°C
App
Temp
°C
Dew
Point
Rel
Hum
%
Delta-T
°C
Wind Press
QNH
hPa
Press
MSL
hPa
Rain
since 9 am
mm
Dir
 
Spd
km/h
Gust
km/h
Spd
kts
Gust
kts
20/10:30am 21.2 15.3 8.9 45 6.6 SSE 30 43 16 23 1022.5 - 0.0
20/10:00am 20.4 16.0 8.8 47 6.2 SSE 22 33 12 18 1022.6 - 0.0
20/09:30am 20.2 15.0 9.0 48 6.0 SSE 26 37 14 20 1022.6 - 0.0
20/09:00am 19.4 13.4 8.8 50 5.6 SSE 30 41 16 22 1022.2 1020.5 0.0
20/08:30am 18.8 12.4 8.5 51 5.4 SSE 32 41 17 22 1021.9 - 0.0
20/08:07am 17.8 12.1 8.2 53 5.0 SSE 28 46 15 25 1021.8 - 0.0
20/07:58am 17.8 12.1 8.2 53 5.0 SSE 28 46 15 25 1021.9 - 0.0
20/07:30am 17.9 11.8 8.1 52 5.1 SSE 30 43 16 23 1021.5 - 0.0
20/07:00am 17.8 13.1 7.9 52 5.1 SE 22 37 12 20 1021.3 - 0.0
20/06:30am 18.2 12.0 7.7 50 5.4 SSE 30 43 16 23 1021.5 - 0.0
20/06:00am 18.5 13.1 7.9 50 5.5 SSE 26 37 14 20 1020.9 1019.1 0.0
20/05:30am 18.7 13.2 7.7 48 5.7 SSE 26 46 14 25 1020.7 - 0.0
20/05:26am 18.7 12.8 7.7 48 5.7 SSE 28 46 15 25 1020.7 - 0.0
20/05:00am 18.8 12.0 7.6 48 5.8 SSE 33 43 18 23 1020.7 - 0.0
20/04:30am 19.1 13.5 7.0 45 6.2 SSE 26 39 14 21 1020.2 - 0.0
20/04:00am 19.5 12.4 6.2 42 6.7 SSE 33 44 18 24 1019.8 - 0.0
20/03:30am 19.7 12.0 5.5 39 7.1 SSE 35 48 19 26 1019.6 - 0.0
20/03:02am 19.9 12.5 4.9 37 7.4 SSE 33 52 18 28 1019.8 - 0.0
20/03:00am 19.8 12.6 5.1 38 7.3 SSE 32 43 17 23 1019.8 1018.1 0.0
20/02:43am 20.0 13.0 4.2 35 7.7 SSE 30 48 16 26 1019.9 - 0.0
20/02:30am 20.0 12.6 4.2 35 7.7 SSE 32 44 17 24 1020.0 - 0.0
20/02:00am 20.1 12.7 4.1 35 7.8 SSE 32 43 17 23 1020.0 - 0.0
20/01:37am 20.4 12.8 2.7 31 8.4 S 32 50 17 27 1020.5 - 0.0
20/01:30am 20.4 12.6 2.7 31 8.4 S 33 50 18 27 1020.6 - 0.0
20/01:00am 20.6 12.5 3.4 32 8.3 S 35 44 19 24 1020.8 - 0.0
20/12:31am 20.9 12.9 3.6 32 8.4 SSE 35 54 19 29 1021.0 - 0.0
20/12:30am 20.9 12.5 3.6 32 8.4 SSE 37 54 20 29 1021.0 - 0.0
20/12:26am 20.9 12.9 3.6 32 8.4 S 35 54 19 29 1021.0 - 0.0
20/12:00am 21.1 13.4 3.6 31 8.5 S 33 46 18 25 1021.1 1019.3 0.0
 
Date/Time
EST
Temp
°C
App
Temp
°C
Dew
Point
Rel
Hum
%
Delta-T
°C
Wind Press
QNH
hPa
Press
MSL
hPa
Rain
since 9 am
mm
Dir
 
Spd
km/h
Gust
km/h
Spd
kts
Gust
kts
19/11:38pm 21.4 13.8 2.8 29 8.9 S 32 50 17 27 1021.5 - 0.0
19/11:30pm 21.5 13.3 2.7 29 9.0 S 35 50 19 27 1021.6 - 0.0
19/11:00pm 21.5 13.5 3.9 31 8.6 S 35 50 19 27 1021.6 - 0.0
19/10:30pm 21.4 14.3 6.4 37 7.7 SSE 33 48 18 26 1021.5 - 0.0
19/10:11pm 21.3 14.7 7.8 41 7.1 S 32 50 17 27 1021.5 - 0.0
19/10:00pm 21.2 14.8 8.4 43 6.8 S 32 43 17 23 1021.5 - 0.0
19/09:30pm 20.7 15.0 12.9 61 4.5 S 35 52 19 28 1021.7 - 0.0
19/09:28pm 20.7 15.3 12.9 61 4.5 S 33 52 18 28 1021.7 - 0.0
19/09:00pm 20.5 15.8 14.2 67 3.7 S 32 43 17 23 1021.6 1019.9 0.0
19/08:30pm 20.8 16.0 11.8 56 5.1 S 28 33 15 18 1021.0 - 0.0
19/08:00pm 21.0 16.4 12.2 57 5.0 S 28 35 15 19 1020.6 - 0.0
19/07:30pm 21.2 17.9 12.9 59 4.8 SSE 22 28 12 15 1019.8 - 0.0
19/07:00pm 21.2 18.4 13.1 60 4.7 SSE 20 30 11 16 1019.5 - 0.0
19/06:30pm 21.3 17.4 13.2 60 4.7 SSE 26 35 14 19 1019.4 - 0.0
19/06:00pm 21.4 15.8 13.3 60 4.7 SSE 35 48 19 26 1019.4 1017.7 0.0
19/05:30pm 22.3 17.0 12.6 54 5.6 SSE 32 43 17 23 1018.9 - 0.0
19/05:00pm 22.9 17.8 13.1 54 5.7 S 32 43 17 23 1019.0 - 0.0
19/04:30pm 23.5 18.8 13.3 52 6.0 S 30 39 16 21 1018.9 - 0.0
19/04:00pm 23.6 19.3 13.2 52 6.1 SSE 28 41 15 22 1018.9 - 0.0
19/03:30pm 24.7 20.5 13.6 50 6.6 SSE 28 35 15 19 1018.7 - 0.0
19/03:00pm 24.1 20.0 13.8 52 6.1 SSE 28 32 15 17 1018.9 1017.2 0.0
19/02:30pm 24.2 19.5 13.1 50 6.5 SSE 30 35 16 19 1019.1 - 0.0
19/02:00pm 24.2 18.8 12.3 47 6.9 S 32 41 17 22 1019.1 - 0.0
19/01:30pm 24.6 18.2 10.8 42 7.8 S 35 44 19 24 1019.2 - 0.0
19/01:00pm 26.2 19.9 11.2 39 8.6 S 35 41 19 22 1019.2 - 0.0
19/12:30pm 27.3 22.0 11.2 36 9.3 S 30 39 16 21 1019.2 - 0.0
19/12:00pm 28.0 23.8 11.0 34 9.8 S 24 33 13 18 1019.4 1017.7 0.0
19/11:30am 26.7 22.1 11.0 37 9.0 SSE 26 37 14 20 1020.0 - 0.0
19/11:00am 26.6 22.7 10.8 37 9.0 SSE 22 33 12 18 1020.2 - 0.0
19/10:30am 25.6 20.8 11.7 42 8.0 SSE 28 37 15 20 1020.7 - 0.0
19/10:00am 24.6 19.5 13.0 48 6.8 SSE 32 41 17 22 1020.8 - 0.0
19/09:30am 23.7 18.8 13.7 53 5.9 SE 32 39 17 21 1020.3 - 0.0
19/09:00am 22.4 17.9 13.9 58 5.0 SSE 30 39 16 21 1020.2 1018.5 0.0
19/08:30am 22.4 18.6 13.7 58 5.1 SSE 26 39 14 21 1019.8 - 0.0
19/08:00am 21.3 16.2 13.2 60 4.7 SSE 32 43 17 23 1019.9 - 0.0
19/07:30am 20.6 17.6 13.6 64 4.1 S 22 32 12 17 1019.8 - 0.0
19/07:00am 20.3 16.6 13.8 66 3.8 S 26 33 14 18 1019.4 - 0.0
19/06:30am 20.4 16.3 13.9 66 3.8 SSE 28 44 15 24 1018.7 - 0.0
19/06:00am 20.4 16.0 14.1 67 3.7 S 30 41 16 22 1018.6 1016.8 0.0
19/05:30am 20.5 16.0 13.8 65 3.9 SSE 30 41 16 22 1018.3 - 0.0
19/05:00am 20.8 17.1 15.1 70 3.4 SSE 28 37 15 20 1017.7 - 0.0
19/04:30am 21.2 16.6 16.1 72 3.1 S 35 44 19 24 1017.4 - 0.0
19/04:00am 21.7 18.4 17.0 74 2.9 S 30 37 16 20 1017.6 - 0.0
19/03:30am 22.0 18.7 17.0 73 3.1 S 30 37 16 20 1017.5 - 0.0
19/03:00am 22.0 19.4 16.8 72 3.2 S 26 35 14 19 1017.2 1015.5 0.0
19/02:30am 22.3 20.1 17.0 72 3.3 S 24 33 13 18 1017.5 - 0.0
19/02:00am 22.5 20.2 17.6 74 3.1 S 26 33 14 18 1017.7 - 0.0
19/01:30am 22.5 19.4 17.4 73 3.2 S 30 35 16 19 1018.0 - 0.0
19/01:00am 22.5 20.0 17.2 72 3.3 S 26 33 14 18 1018.3 - 0.0
19/12:30am 22.7 20.7 16.5 68 3.8 SSE 22 33 12 18 1018.3 - 0.0
19/12:00am 23.1 20.0 15.7 63 4.5 S 26 35 14 19 1018.4 1016.6 0.0
 
Date/Time
EST
Temp
°C
App
Temp
°C
Dew
Point
Rel
Hum
%
Delta-T
°C
Wind Press
QNH
hPa
Press
MSL
hPa
Rain
since 9 am
mm
Dir
 
Spd
km/h
Gust
km/h
Spd
kts
Gust
kts
18/11:30pm 23.3 19.5 15.8 62 4.6 S 30 39 16 21 1018.2 - 0.0
18/11:00pm 23.6 19.4 15.7 61 4.8 S 32 39 17 21 1018.4 - 0.0
18/10:30pm 23.9 20.7 16.3 62 4.7 S 28 35 15 19 1018.5 - 0.0
18/10:00pm 24.3 20.0 15.4 57 5.4 S 32 39 17 21 1018.5 - 0.0
18/09:30pm 25.0 20.9 14.9 53 6.1 S 30 37 16 20 1018.4 - 0.0
18/09:00pm 25.5 20.5 14.0 49 6.9 S 33 50 18 27 1017.8 1016.0 0.0
18/08:30pm 25.6 20.1 14.7 51 6.6 S 37 52 20 28 1017.5 - 0.0
18/08:00pm 26.7 21.2 14.7 47 7.3 S 37 48 20 26 1016.6 - 0.0
18/07:30pm 28.4 23.3 13.2 39 9.1 S 32 41 17 22 1016.1 - 0.0
18/07:00pm 29.4 25.5 13.3 37 9.7 S 26 35 14 19 1015.7 - 0.0
18/06:30pm 30.1 26.9 13.2 35 10.2 S 22 32 12 17 1015.2 - 0.0
18/06:00pm 30.8 27.2 12.9 33 10.8 S 24 32 13 17 1014.8 1013.0 0.0
18/05:30pm 31.2 28.5 13.0 33 11.0 S 19 28 10 15 1014.6 - 0.0
18/05:00pm 31.9 28.9 12.6 30 11.6 SSE 20 28 11 15 1014.1 - 0.0
18/04:30pm 32.2 28.9 12.9 31 11.7 S 22 30 12 16 1014.1 - 0.0
18/04:00pm 32.1 29.7 12.5 30 11.8 SE 17 26 9 14 1014.1 - 0.0
18/03:30pm 32.4 30.4 12.7 30 11.9 SSE 15 20 8 11 1014.1 - 0.0
18/03:00pm 32.5 30.5 12.6 29 12.0 SSE 15 24 8 13 1014.4 1012.6 0.0
18/02:30pm 31.6 29.6 12.7 31 11.4 SSE 15 22 8 12 1014.6 - 0.0
18/02:00pm 31.8 28.9 13.0 31 11.4 S 20 30 11 16 1015.0 - 0.0
18/01:30pm 31.0 29.1 13.1 33 10.8 SSE 15 24 8 13 1015.4 - 0.0
18/01:00pm 30.2 28.4 13.3 35 10.2 SSE 15 19 8 10 1015.9 - 0.0
18/12:30pm 29.7 27.0 13.5 37 9.8 SE 20 28 11 15 1016.5 - 0.0
18/12:00pm 28.2 25.8 13.8 41 8.7 SSE 19 28 10 15 1017.0 1015.3 0.0
18/11:30am 27.8 25.2 13.9 42 8.4 SSE 20 28 11 15 1017.6 - 0.0
18/11:00am 27.4 24.9 14.0 43 8.1 SE 20 28 11 15 1017.8 - 0.0
18/10:30am 27.1 24.1 13.8 44 8.0 SSE 22 30 12 16 1018.1 - 0.0
18/10:00am 26.8 23.9 14.0 45 7.7 SSE 22 30 12 16 1018.2 - 0.0
18/09:30am 26.2 23.7 14.1 47 7.3 SSE 20 26 11 14 1018.2 - 0.0
18/09:00am 25.7 22.4 14.0 48 7.0 S 24 33 13 18 1017.8 1016.0 0.0
18/08:30am 24.9 20.8 13.8 50 6.6 S 28 35 15 19 1017.4 - 0.0
18/08:00am 24.6 22.1 14.1 52 6.3 SSE 20 32 11 17 1016.6 - 0.0
18/07:30am 24.3 21.0 13.9 52 6.2 S 24 30 13 16 1016.3 - 0.0
18/07:00am 24.2 21.9 14.0 53 6.1 S 19 30 10 16 1015.8 - 0.0
18/06:30am 24.4 20.3 13.8 51 6.3 S 28 35 15 19 1015.2 - 0.0
18/06:00am 24.7 22.0 13.6 50 6.6 S 20 30 11 16 1014.9 1013.1 0.0
18/05:30am 25.1 22.9 13.3 48 7.0 S 17 20 9 11 1014.5 - 0.0
18/05:00am 25.4 23.2 13.2 46 7.2 S 17 19 9 10 1014.0 - 0.0
18/04:30am 25.6 23.3 12.9 45 7.5 S 17 22 9 12 1013.9 - 0.0
18/04:00am 25.8 24.2 12.9 44 7.6 SSE 13 17 7 9 1013.8 - 0.0
18/03:30am 26.3 23.0 12.7 43 8.0 S 22 30 12 16 1014.0 - 0.0
18/03:00am 26.7 22.6 12.6 41 8.3 S 26 32 14 17 1013.9 1012.2 0.0
18/02:47am 27.2 22.6 12.4 40 8.7 S 28 33 15 18 1013.9 - 0.0
18/02:30am 27.0 27.1 14.5 46 7.6 SW 7 11 4 6 1013.8 - 0.0
18/02:00am 26.9 26.2 13.3 43 8.1 SW 9 15 5 8 1013.9 - 0.0
18/01:30am 26.1 25.0 14.4 48 7.1 WSW 13 15 7 8 1013.7 - 0.0
18/01:00am 22.3 23.6 14.0 59 4.9 CALM 0 0 0 0 1013.9 - 0.0
18/12:30am 22.5 24.1 14.8 61 4.6 CALM 0 0 0 0 1014.0 - 0.0
18/12:00am 23.5 24.4 15.1 59 5.1 N 4 7 2 4 1014.3 1012.5 0.0
 
Date/Time
EST
Temp
°C
App
Temp
°C
Dew
Point
Rel
Hum
%
Delta-T
°C
Wind Press
QNH
hPa
Press
MSL
hPa
Rain
since 9 am
mm
Dir
 
Spd
km/h
Gust
km/h
Spd
kts
Gust
kts
17/11:30pm 24.0 24.5 15.5 59 5.2 N 7 9 4 5 1014.5 - 0.0
17/11:00pm 24.4 24.6 14.8 55 5.8 NNW 7 7 4 4 1014.7 - 0.0
17/10:30pm 24.8 24.8 15.1 54 5.9 N 9 9 5 5 1014.7 - 0.0
17/10:00pm 24.5 26.0 14.7 54 5.9 CALM 0 0 0 0 1014.8 - 0.0
17/09:30pm 25.1 25.0 13.9 49 6.7 NNE 7 7 4 4 1014.7 - 0.0
17/09:00pm 25.9 25.4 13.7 47 7.3 N 9 9 5 5 1014.5 1012.7 0.0
17/08:30pm 26.9 26.5 14.2 45 7.7 N 9 9 5 5 1014.1 - 0.0
17/08:00pm 27.6 27.1 13.8 42 8.3 NNE 9 11 5 6 1013.9 - 0.0
17/07:30pm 29.2 28.6 14.5 40 9.0 NE 11 11 6 6 1013.5 - 0.0
17/07:00pm 30.9 30.4 13.9 35 10.4 NE 9 11 5 6 1013.2 - 0.0
17/06:30pm 31.9 31.4 13.8 33 11.1 NE 9 11 5 6 1013.0 - 0.0
17/06:00pm 33.3 31.8 12.0 27 12.8 NNE 11 13 6 7 1012.6 1010.8 0.0
17/05:30pm 33.8 32.5 11.3 25 13.4 NE 9 13 5 7 1012.4 - 0.0
17/05:00pm 34.4 32.8 11.5 25 13.7 N 11 19 6 10 1012.3 - 0.0
17/04:30pm 34.5 33.1 12.2 26 13.5 N 11 17 6 9 1012.3 - 0.0
17/04:00pm 35.0 34.3 11.5 24 14.1 SW 6 11 3 6 1012.3 - 0.0
17/03:30pm 34.1 33.3 11.8 25 13.4 SSW 7 11 4 6 1012.4 - 0.0
17/03:00pm 34.0 33.5 12.6 27 13.0 SSW 7 9 4 5 1012.6 1010.8 0.0
17/02:30pm 33.7 32.2 11.9 26 13.1 E 11 19 6 10 1012.9 - 0.0
17/02:00pm 33.3 31.7 12.9 29 12.4 NNE 13 20 7 11 1013.6 - 0.0
17/01:30pm 33.0 31.9 14.3 32 11.6 NE 13 22 7 12 1014.1 - 0.0
17/01:00pm 32.7 31.4 14.7 33 11.2 NE 15 24 8 13 1014.7 - 0.0
17/12:30pm 32.0 30.5 15.2 36 10.5 ENE 17 26 9 14 1015.4 - 0.0
17/12:00pm 32.0 30.2 15.4 36 10.4 NE 19 28 10 15 1016.0 1014.2 0.0
17/11:30am 30.9 29.1 16.0 40 9.4 NE 20 30 11 16 1016.5 - 0.0
17/11:00am 30.8 29.1 16.3 41 9.2 NNE 20 30 11 16 1016.9 - 0.0

Other Formats:

Comma delimited format used in spreadsheet applications
http://www.bom.gov.au/fwo/IDQ60801/IDQ60801.94332.axf

JavaScript Object Notation format (JSON) in row-major order
http://www.bom.gov.au/fwo/IDQ60801/IDQ60801.94332.json